Date,TemperatureHighF,TemperatureAvgF,TemperatureLowF,DewpointHighF,DewpointAvgF,DewpointLowF,HumidityHigh,HumidityAvg,HumidityLow,PressureMaxIn,PressureMinIn,WindSpeedMaxMPH,WindSpeedAvgMPH,GustSpeedMaxMPH,PrecipitationSumIn
2013-2-1,39.5,35.6,33.3,31.0,26.6,23.0,89,70,57,32.06,31.72,20,5,23,0.00
2013-2-2,41.3,30.7,28.5,27.0,9.4,-99.9,77,57,53,32.15,31.91,21,-111,21,0.00
2013-2-3,40.5,27.8,28.1,27.0,-1.6,-99.9,78,52,50,31.91,31.68,9,-208,14,0.00
2013-2-4,40.7,36.9,35.2,29.0,26.1,24.0,70,65,55,31.68,31.60,15,4,24,0.00
2013-2-5,43.7,36.3,33.0,32.0,24.6,-99.9,83,67,50,31.61,31.37,17,-18,23,0.00
2013-2-6,35.7,29.7,27.8,29.0,18.3,-99.9,93,75,61,31.75,31.52,13,-59,17,0.03
2013-2-7,34.5,21.9,24.9,25.0,-12.9,-99.9,82,51,63,31.72,31.57,5,-291,10,0.01
2013-2-8,34.8,26.2,27.3,27.0,6.5,-99.9,91,67,68,31.69,31.63,12,-144,17,0.01
2013-2-9,29.6,26.9,24.8,24.0,19.1,-99.9,92,75,63,31.81,31.61,13,-6,16,0.00
2013-2-10,32.0,26.2,23.0,24.0,17.3,-99.9,91,74,54,31.95,31.82,8,-18,15,0.04
2013-2-11,33.4,17.4,21.3,21.0,-26.6,-99.9,77,43,59,31.89,31.83,10,-384,14,0.00
2013-2-12,35.3,28.5,28.2,28.0,10.5,-99.9,85,66,68,31.93,31.79,18,-110,22,0.00
2013-2-13,38.4,35.5,31.6,30.0,26.9,23.0,81,71,62,31.88,31.70,17,7,28,0.00
2013-2-14,35.1,32.1,29.9,24.0,20.7,-99.9,72,65,58,32.13,31.89,16,-4,21,0.00
2013-2-15,43.1,35.9,32.4,29.0,26.0,24.0,78,68,55,32.18,31.96,11,3,17,0.00
2013-2-16,45.2,29.7,27.9,32.0,3.6,-99.9,91,58,53,31.95,31.42,19,-184,22,0.01
2013-2-17,32.0,29.6,27.0,29.0,22.5,19.0,92,75,65,31.78,31.47,14,3,20,0.02
2013-2-18,37.1,27.2,25.6,23.0,3.6,-99.9,89,53,41,31.80,31.46,15,-116,19,0.00
2013-2-19,36.5,27.6,26.6,24.0,4.2,-99.9,77,53,40,31.46,31.29,8,-123,13,0.00
2013-2-20,32.6,28.7,26.1,24.0,20.1,16.0,90,71,56,31.63,31.41,14,4,17,0.01
2013-2-21,31.3,23.1,18.6,22.0,2.3,-99.9,83,57,48,31.76,31.63,13,-110,19,0.00
2013-2-22,36.9,30.7,26.6,27.0,19.3,-99.9,78,67,52,31.71,31.29,19,-10,26,0.00
2013-2-23,34.4,28.3,25.6,27.0,16.3,-99.9,90,63,48,31.87,31.26,16,-4,25,0.00
2013-2-24,32.8,27.9,23.1,19.0,16.7,15.0,75,63,53,32.00,31.85,18,4,23,0.00
2013-2-25,35.4,26.6,26.3,26.0,6.9,-99.9,84,59,50,31.84,31.58,13,-101,22,0.00
2013-2-26,32.6,27.8,25.1,22.0,17.0,-99.9,83,66,58,32.02,31.72,14,-7,20,0.00
2013-2-27,37.2,19.7,24.5,20.0,-29.3,-99.9,74,33,47,32.02,31.92,12,-398,16,0.00
2013-2-28,39.7,33.2,28.4,31.0,26.2,18.0,88,76,59,32.02,31.92,11,3,16,0.01